Sioux City, Iowa
Current Conditions -  °F | °C
As of 5:52 PM on Friday 21 Nov 2014 (Local Time) from KSUX Reporting Station
Clear Clear  
Wind Chill: 26°   Ceiling: Unl
Heat Index: 35°   Visibility: 10mi
Dew Point: 27°   Wind: 15mph
Humidity: 72%   Direction: 170°S
Pressure: 30"   Gusts: NA
Location:  42.5°N, 96.42°W
Report Text: KSUX 212352Z AUTO 17013KT 10SM CLR 02/M03 A3000 RMK AO2 SLP175 T00171028 10039 20017 58005
Loading
Personal Weather Stations






























Interactive Weather Map New forecast layout! Learn more

10-Day Weather Forecast

Advertisements
Track Severe Weather on mobile